Time;durP1;ratioP1;P1;durP2;ratioP2;P2;SDS_P1;SDS_P2;PMS_P1;PMS_P2;Temp;Humidity;BMP_temperature;BMP_pressure;BME280_temperature;BME280_humidity;BME280_pressure;Samples;Min_cycle;Max_cycle;Signal;HPM_P1;HPM_P2
2023/12/11 00:01:09;;;;;;;14.20;2.90;;;11.20;99.90;;;;;;4919502;29;20028;-82
2023/12/11 00:03:34;;;;;;;26.05;3.35;;;11.30;99.90;;;;;;4917931;29;20043;-82
2023/12/11 00:06:00;;;;;;;26.23;4.50;;;11.30;99.90;;;;;;4916093;29;20039;-82
2023/12/11 00:08:26;;;;;;;23.88;3.80;;;11.30;99.90;;;;;;4919582;29;20032;-82
2023/12/11 00:10:51;;;;;;;15.45;2.55;;;11.30;99.90;;;;;;4923598;29;21551;-82
2023/12/11 00:13:17;;;;;;;24.38;4.45;;;11.30;99.90;;;;;;4919335;29;21788;-82
2023/12/11 00:15:42;;;;;;;26.48;3.00;;;11.30;99.90;;;;;;4919615;29;20629;-82
2023/12/11 00:18:08;;;;;;;30.15;3.88;;;11.30;99.90;;;;;;4920751;29;20048;-83
2023/12/11 00:20:34;;;;;;;21.88;3.92;;;11.20;99.90;;;;;;4921313;29;20491;-83
2023/12/11 00:23:00;;;;;;;26.98;4.82;;;11.20;99.90;;;;;;4921920;29;20027;-83
2023/12/11 00:25:27;;;;;;;22.10;2.60;;;11.10;99.90;;;;;;4918161;29;20543;-82
2023/12/11 00:27:53;;;;;;;24.02;3.15;;;11.20;99.90;;;;;;4920150;29;20052;-82
2023/12/11 00:30:19;;;;;;;22.30;3.65;;;11.20;99.90;;;;;;4920549;29;20032;-82
2023/12/11 00:32:45;;;;;;;25.23;3.83;;;11.20;99.90;;;;;;4918958;29;20535;-82
2023/12/11 00:35:10;;;;;;;20.45;3.85;;;11.00;99.90;;;;;;4916395;29;20046;-82
2023/12/11 00:37:36;;;;;;;22.20;3.00;;;11.00;99.90;;;;;;4915013;29;20084;-82
2023/12/11 00:40:02;;;;;;;23.58;3.63;;;11.00;99.90;;;;;;4919377;29;20055;-82
2023/12/11 00:42:28;;;;;;;17.45;3.08;;;11.10;99.90;;;;;;4921217;29;20153;-81
2023/12/11 00:44:53;;;;;;;17.05;2.67;;;11.00;99.90;;;;;;4918452;29;20032;-80
2023/12/11 00:47:19;;;;;;;24.40;3.55;;;10.60;99.90;;;;;;4920715;29;20055;-80
2023/12/11 00:49:45;;;;;;;20.85;2.72;;;10.30;99.90;;;;;;4924095;29;20075;-80
2023/12/11 00:52:10;;;;;;;17.23;2.53;;;10.10;99.90;;;;;;4924890;29;20051;-80
2023/12/11 00:54:36;;;;;;;23.05;2.75;;;10.00;99.90;;;;;;4934099;29;20031;-81
2023/12/11 00:57:01;;;;;;;19.15;2.67;;;10.10;99.90;;;;;;4947035;29;20028;-82
2023/12/11 00:59:27;;;;;;;24.48;3.05;;;10.00;99.90;;;;;;4943256;29;20032;-80
2023/12/11 01:01:53;;;;;;;15.73;2.33;;;9.80;99.90;;;;;;4939189;29;20039;-82
2023/12/11 01:04:19;;;;;;;16.67;2.33;;;9.80;99.90;;;;;;4928205;29;20233;-82
2023/12/11 01:06:45;;;;;;;14.02;2.20;;;9.80;99.90;;;;;;4925911;29;20031;-81
2023/12/11 01:09:10;;;;;;;13.98;1.55;;;9.80;99.90;;;;;;4924729;29;20289;-80
2023/12/11 01:11:36;;;;;;;10.38;1.60;;;9.90;99.90;;;;;;4914389;29;20602;-81
2023/12/11 01:14:02;;;;;;;7.72;1.92;;;10.00;99.90;;;;;;4923389;29;20091;-81
2023/12/11 01:16:28;;;;;;;13.43;2.00;;;9.90;99.90;;;;;;4919733;29;20027;-82
2023/12/11 01:18:53;;;;;;;14.68;2.13;;;9.90;99.90;;;;;;4921749;29;20039;-81
2023/12/11 01:21:19;;;;;;;14.63;2.40;;;9.90;99.90;;;;;;4917159;29;20063;-82
2023/12/11 01:23:45;;;;;;;11.70;2.10;;;9.90;99.90;;;;;;4916840;29;20512;-82
2023/12/11 01:26:10;;;;;;;10.50;1.88;;;9.80;99.90;;;;;;4916092;29;20090;-82
2023/12/11 01:28:36;;;;;;;17.40;2.67;;;9.80;99.90;;;;;;4918709;29;20040;-82
2023/12/11 01:31:02;;;;;;;16.05;2.85;;;9.90;99.90;;;;;;4919238;29;20732;-82
2023/12/11 01:33:28;;;;;;;22.48;2.88;;;9.90;99.90;;;;;;4923908;29;20547;-83
2023/12/11 01:35:53;;;;;;;17.05;2.75;;;10.00;99.90;;;;;;4922588;29;20039;-82
2023/12/11 01:38:19;;;;;;;20.55;2.92;;;10.00;99.90;;;;;;4919648;29;20127;-82
2023/12/11 01:40:45;;;;;;;14.55;1.80;;;9.90;99.90;;;;;;4919011;29;20419;-82
2023/12/11 01:43:12;;;;;;;16.58;2.38;;;10.10;99.90;;;;;;4923382;29;20666;-82
2023/12/11 01:45:38;;;;;;;15.85;3.05;;;10.20;99.90;;;;;;4922798;29;20053;-82
2023/12/11 01:48:05;;;;;;;10.20;1.80;;;10.30;99.90;;;;;;4920776;29;20062;-82
2023/12/11 01:50:31;;;;;;;11.05;2.00;;;10.30;99.90;;;;;;4919645;29;20496;-82
2023/12/11 01:52:57;;;;;;;14.35;2.00;;;10.30;99.90;;;;;;4919337;29;20331;-82
2023/12/11 01:55:24;;;;;;;14.93;1.92;;;10.40;99.90;;;;;;4921203;29;20034;-82
2023/12/11 01:57:50;;;;;;;15.10;2.10;;;10.40;99.90;;;;;;4919911;29;20028;-82
2023/12/11 02:00:16;;;;;;;11.48;3.05;;;10.40;99.90;;;;;;4918278;29;20043;-82
2023/12/11 02:02:42;;;;;;;16.42;2.38;;;10.40;99.90;;;;;;4918558;29;20024;-82
2023/12/11 02:05:08;;;;;;;11.50;2.13;;;10.40;99.90;;;;;;4915830;29;20054;-82
2023/12/11 02:07:33;;;;;;;15.75;2.20;;;10.40;99.90;;;;;;4922707;29;20027;-83
2023/12/11 02:09:59;;;;;;;16.15;3.22;;;10.40;99.90;;;;;;4920958;29;20035;-82
2023/12/11 02:12:25;;;;;;;15.70;2.25;;;10.40;99.90;;;;;;4921033;29;20058;-82
2023/12/11 02:14:50;;;;;;;21.73;2.50;;;10.40;99.90;;;;;;4920367;29;20040;-82
2023/12/11 02:17:16;;;;;;;15.95;2.20;;;10.40;99.90;;;;;;4922591;29;20039;-82
2023/12/11 02:19:42;;;;;;;12.80;1.67;;;10.40;99.90;;;;;;4920130;29;20142;-83
2023/12/11 02:22:09;;;;;;;16.15;2.20;;;10.50;99.90;;;;;;4916540;29;20028;-82
2023/12/11 02:24:43;;;;;;;18.17;2.92;;;10.60;99.90;;;;;;4918995;29;20173;-82
2023/12/11 02:27:09;;;;;;;11.73;2.15;;;10.60;99.90;;;;;;4919106;29;20444;-83
2023/12/11 02:29:34;;;;;;;12.68;2.15;;;10.60;99.90;;;;;;4920325;29;20046;-82
2023/12/11 02:32:00;;;;;;;16.33;2.03;;;10.60;99.90;;;;;;4920209;29;20036;-83
2023/12/11 02:34:25;;;;;;;11.35;1.77;;;10.70;99.90;;;;;;4914193;29;20036;-83
2023/12/11 02:36:51;;;;;;;9.63;2.10;;;10.80;99.90;;;;;;4916496;29;20626;-83
2023/12/11 02:39:17;;;;;;;14.85;2.45;;;10.80;99.90;;;;;;4918070;29;20035;-82
2023/12/11 02:41:42;;;;;;;11.02;2.28;;;10.80;99.90;;;;;;4921934;29;20019;-83
2023/12/11 02:44:08;;;;;;;11.23;1.90;;;10.80;99.90;;;;;;4921815;29;20094;-83
2023/12/11 02:46:34;;;;;;;15.75;2.15;;;10.80;99.90;;;;;;4920831;29;20055;-83
2023/12/11 02:48:59;;;;;;;15.48;2.50;;;10.80;99.90;;;;;;4920072;29;20119;-82
2023/12/11 02:51:25;;;;;;;14.50;2.95;;;10.80;99.90;;;;;;4920804;29;20031;-83
2023/12/11 02:53:50;;;;;;;14.05;2.10;;;10.70;99.90;;;;;;4919077;29;20819;-83
2023/12/11 02:56:16;;;;;;;10.82;2.05;;;10.70;99.90;;;;;;4916670;29;21178;-83
2023/12/11 02:58:44;;;;;;;14.20;1.88;;;10.80;99.90;;;;;;4919375;29;20094;-82
2023/12/11 03:01:09;;;;;;;11.15;2.40;;;10.80;99.90;;;;;;4919444;29;20554;-83
2023/12/11 03:03:35;;;;;;;12.55;1.65;;;10.80;99.90;;;;;;4922023;29;20326;-83
2023/12/11 03:06:03;;;;;;;17.20;2.35;;;10.80;99.90;;;;;;4931923;29;20109;-83
2023/12/11 03:08:29;;;;;;;13.15;1.90;;;10.80;99.90;;;;;;4945944;28;20058;-83
2023/12/11 03:10:55;;;;;;;13.20;2.10;;;10.70;99.90;;;;;;4946552;28;20052;-83
2023/12/11 03:13:20;;;;;;;17.88;2.85;;;10.70;99.90;;;;;;4949336;28;20109;-83
2023/12/11 03:15:46;;;;;;;17.45;2.35;;;10.80;99.90;;;;;;4937099;28;20043;-83
2023/12/11 03:18:12;;;;;;;11.82;1.83;;;10.70;99.90;;;;;;4926351;29;20099;-83
2023/12/11 03:20:37;;;;;;;20.15;3.42;;;10.60;99.90;;;;;;4931232;29;20070;-83
2023/12/11 03:23:03;;;;;;;12.75;1.90;;;10.60;99.90;;;;;;4925616;29;20589;-83
2023/12/11 03:25:29;;;;;;;9.70;2.20;;;10.40;99.90;;;;;;4922868;29;20250;-82
2023/12/11 03:27:54;;;;;;;12.43;2.58;;;10.40;99.90;;;;;;4917738;29;20040;-83
2023/12/11 03:30:20;;;;;;;18.10;1.88;;;10.30;99.90;;;;;;4917374;29;20145;-83
2023/12/11 03:32:45;;;;;;;9.77;1.75;;;10.30;99.90;;;;;;4915413;29;20563;-83
2023/12/11 03:35:11;;;;;;;9.73;1.77;;;10.60;99.90;;;;;;4914290;29;20040;-83
2023/12/11 03:37:37;;;;;;;12.07;1.60;;;10.50;99.90;;;;;;4912921;29;20032;-83
2023/12/11 03:40:03;;;;;;;6.25;2.05;;;10.30;99.90;;;;;;4920018;29;20495;-83
2023/12/11 03:42:29;;;;;;;15.90;2.25;;;10.40;99.90;;;;;;4919936;29;20044;-83
2023/12/11 03:44:55;;;;;;;13.40;2.85;;;10.40;99.90;;;;;;4922980;29;20388;-83
2023/12/11 03:47:21;;;;;;;10.68;2.20;;;10.40;99.90;;;;;;4923961;29;20047;-83
2023/12/11 03:49:47;;;;;;;12.00;1.98;;;10.30;99.90;;;;;;4921508;29;20086;-83
2023/12/11 03:52:12;;;;;;;12.35;1.52;;;10.30;99.90;;;;;;4922263;29;20027;-83
2023/12/11 03:54:38;;;;;;;9.73;1.90;;;10.30;99.90;;;;;;4919336;29;20392;-82
2023/12/11 03:57:04;;;;;;;11.02;2.30;;;10.30;99.90;;;;;;4910660;29;20471;-83
2023/12/11 03:59:30;;;;;;;7.45;1.40;;;10.30;99.90;;;;;;4921227;29;20036;-83
2023/12/11 04:01:55;;;;;;;9.93;1.55;;;10.40;99.90;;;;;;4922200;29;20042;-82
2023/12/11 04:04:21;;;;;;;7.38;1.83;;;10.20;99.90;;;;;;4926288;29;20117;-83
2023/12/11 04:06:46;;;;;;;12.05;1.98;;;10.20;99.90;;;;;;4925553;29;20031;-83
2023/12/11 04:09:12;;;;;;;13.82;2.50;;;10.10;99.90;;;;;;4922613;29;20031;-83
2023/12/11 04:11:38;;;;;;;9.80;2.05;;;10.10;99.90;;;;;;4924523;29;20032;-83
2023/12/11 04:14:03;;;;;;;15.77;2.38;;;10.00;99.90;;;;;;4928210;29;20028;-83
2023/12/11 04:16:29;;;;;;;12.07;1.80;;;10.10;99.90;;;;;;4922117;29;20028;-82
2023/12/11 04:18:55;;;;;;;10.85;2.88;;;10.20;99.90;;;;;;4922544;29;20649;-84
2023/12/11 04:21:21;;;;;;;16.67;2.75;;;10.20;99.90;;;;;;4921472;29;20036;-83
2023/12/11 04:23:46;;;;;;;10.50;1.52;;;10.20;99.90;;;;;;4922618;29;20044;-83
2023/12/11 04:26:13;;;;;;;10.90;1.83;;;10.20;99.90;;;;;;4920923;29;20035;-83
2023/12/11 04:28:39;;;;;;;16.40;1.65;;;10.20;99.90;;;;;;4921426;29;20032;-84
2023/12/11 04:31:04;;;;;;;12.90;1.98;;;10.10;99.90;;;;;;4922557;29;20042;-84
2023/12/11 04:33:32;;;;;;;12.90;2.08;;;10.10;99.90;;;;;;4920833;29;20028;-82
2023/12/11 04:35:58;;;;;;;7.65;1.70;;;10.10;99.90;;;;;;4921100;29;20055;-83
2023/12/11 04:38:24;;;;;;;10.00;1.83;;;10.20;99.90;;;;;;4921577;29;20161;-83
2023/12/11 04:40:49;;;;;;;12.55;2.15;;;10.20;99.90;;;;;;4921793;29;20237;-83
2023/12/11 04:43:15;;;;;;;9.23;2.35;;;10.30;99.90;;;;;;4921788;29;20027;-84
2023/12/11 04:45:41;;;;;;;16.23;2.63;;;10.30;99.90;;;;;;4926624;29;20035;-84
2023/12/11 04:48:07;;;;;;;16.95;2.53;;;10.30;99.90;;;;;;4921214;29;20036;-84
2023/12/11 04:50:33;;;;;;;11.90;1.88;;;10.20;99.90;;;;;;4922640;29;20024;-84
2023/12/11 04:52:59;;;;;;;12.68;2.83;;;10.10;99.90;;;;;;4921134;29;20078;-85
2023/12/11 04:55:25;;;;;;;12.32;2.28;;;10.20;99.90;;;;;;4920407;28;20036;-84
2023/12/11 04:57:50;;;;;;;8.35;1.73;;;10.00;99.90;;;;;;4921407;29;20065;-84
2023/12/11 05:00:17;;;;;;;10.60;1.83;;;10.10;99.90;;;;;;4920554;29;20529;-84
2023/12/11 05:02:43;;;;;;;9.77;1.75;;;9.80;99.90;;;;;;4918785;29;20042;-84
2023/12/11 05:05:09;;;;;;;15.48;2.45;;;10.00;99.90;;;;;;4921683;29;20046;-85
2023/12/11 05:07:35;;;;;;;12.35;2.17;;;9.90;99.90;;;;;;4924647;29;20054;-85
2023/12/11 05:10:01;;;;;;;14.77;1.77;;;10.00;99.90;;;;;;4919393;29;20535;-84
2023/12/11 05:12:26;;;;;;;6.53;1.27;;;10.10;99.90;;;;;;4924608;29;20024;-84
2023/12/11 05:14:52;;;;;;;12.02;1.83;;;10.10;99.90;;;;;;4926150;29;20036;-84
2023/12/11 05:17:18;;;;;;;11.68;1.45;;;10.20;99.90;;;;;;4942758;29;20035;-84
2023/12/11 05:19:43;;;;;;;6.18;1.58;;;10.10;99.90;;;;;;4946944;28;20040;-85
2023/12/11 05:22:09;;;;;;;14.00;1.40;;;10.10;99.90;;;;;;4948851;28;20034;-85
2023/12/11 05:24:35;;;;;;;16.52;2.42;;;10.00;99.90;;;;;;4946190;28;20092;-84
2023/12/11 05:27:00;;;;;;;11.30;2.13;;;9.90;99.90;;;;;;4948955;28;20067;-85
2023/12/11 05:29:26;;;;;;;10.57;1.73;;;9.80;99.90;;;;;;4929055;28;20189;-85
2023/12/11 05:31:52;;;;;;;13.23;2.35;;;9.80;99.90;;;;;;4926743;29;20167;-85
2023/12/11 05:34:18;;;;;;;9.05;1.83;;;9.80;99.90;;;;;;4922663;29;20036;-85
2023/12/11 05:36:43;;;;;;;7.32;1.63;;;9.80;99.90;;;;;;4926221;29;20473;-86
2023/12/11 05:39:09;;;;;;;11.73;2.20;;;9.80;99.90;;;;;;4921530;29;20055;-85
2023/12/11 05:41:35;;;;;;;9.57;1.50;;;9.70;99.90;;;;;;4920155;29;20374;-85
2023/12/11 05:44:00;;;;;;;14.63;2.40;;;9.70;99.90;;;;;;4923767;29;20416;-85
2023/12/11 05:46:26;;;;;;;9.68;1.65;;;9.60;99.90;;;;;;4924261;29;20036;-86
2023/12/11 05:48:52;;;;;;;11.90;2.63;;;9.70;99.90;;;;;;4923417;29;20028;-85
2023/12/11 05:51:18;;;;;;;10.68;2.00;;;9.60;99.90;;;;;;4920539;29;20028;-86
2023/12/11 05:53:43;;;;;;;11.90;2.03;;;9.60;99.90;;;;;;4921970;29;20414;-85
2023/12/11 05:56:09;;;;;;;14.13;2.45;;;9.50;99.90;;;;;;4926757;29;20024;-85
2023/12/11 05:58:35;;;;;;;9.70;1.45;;;9.40;99.90;;;;;;4920815;29;20087;-85
2023/12/11 06:01:01;;;;;;;17.48;1.88;;;9.40;99.90;;;;;;4921075;29;20043;-85
2023/12/11 06:03:27;;;;;;;10.07;1.88;;;9.30;99.90;;;;;;4915933;29;20050;-86
2023/12/11 06:05:57;;;;;;;11.88;2.67;;;9.10;99.90;;;;;;4916181;29;20111;-85
2023/12/11 06:08:24;;;;;;;9.77;1.88;;;9.30;99.90;;;;;;4917363;29;20032;-85
2023/12/11 06:10:50;;;;;;;14.38;2.00;;;9.30;99.90;;;;;;4913363;29;20034;-85
2023/12/11 06:13:16;;;;;;;13.57;2.22;;;9.40;99.90;;;;;;4919229;29;20024;-86
2023/12/11 06:15:42;;;;;;;15.27;2.50;;;9.30;99.90;;;;;;4915475;29;20095;-86
2023/12/11 06:18:08;;;;;;;12.07;2.17;;;9.20;99.90;;;;;;4920340;29;20460;-85
2023/12/11 06:20:33;;;;;;;15.25;1.83;;;9.30;99.90;;;;;;4916879;29;20054;-85
2023/12/11 06:22:59;;;;;;;13.60;1.85;;;9.30;99.90;;;;;;4916900;29;20035;-86
2023/12/11 06:25:24;;;;;;;9.00;1.55;;;9.20;99.90;;;;;;4916991;29;20031;-85
2023/12/11 06:27:50;;;;;;;10.80;1.60;;;9.20;99.90;;;;;;4919418;29;20039;-86
2023/12/11 06:30:16;;;;;;;16.30;1.75;;;9.30;99.90;;;;;;4921777;29;20093;-85
2023/12/11 06:32:42;;;;;;;10.73;1.52;;;9.30;99.90;;;;;;4917354;29;20396;-85
2023/12/11 06:35:07;;;;;;;10.52;1.73;;;9.40;99.90;;;;;;4921128;29;20039;-85
2023/12/11 06:37:33;;;;;;;11.68;1.70;;;9.60;99.90;;;;;;4921545;29;20039;-85
2023/12/11 06:39:59;;;;;;;11.82;2.80;;;9.60;99.90;;;;;;4922206;29;20103;-86
2023/12/11 06:42:24;;;;;;;10.13;2.10;;;9.70;99.90;;;;;;4920227;29;20035;-86
2023/12/11 06:44:50;;;;;;;7.32;2.50;;;9.80;99.90;;;;;;4918508;29;20047;-85
2023/12/11 06:47:17;;;;;;;6.60;1.50;;;9.80;99.90;;;;;;4919563;29;20035;-85
2023/12/11 06:49:44;;;;;;;10.15;2.35;;;9.80;99.90;;;;;;4920163;29;20032;-86
2023/12/11 06:52:09;;;;;;;10.70;1.60;;;9.80;99.90;;;;;;4919932;29;20024;-86
2023/12/11 06:54:35;;;;;;;9.25;1.60;;;9.80;99.90;;;;;;4915813;29;21415;-85
2023/12/11 06:57:01;;;;;;;6.03;1.13;;;9.70;99.90;;;;;;4916870;29;20161;-86
2023/12/11 06:59:26;;;;;;;10.15;1.75;;;9.70;99.90;;;;;;4918336;29;20035;-86
2023/12/11 07:01:52;;;;;;;9.43;1.40;;;9.70;99.90;;;;;;4923477;29;20508;-85
2023/12/11 07:04:18;;;;;;;7.22;1.40;;;9.70;99.90;;;;;;4919320;29;20028;-83
2023/12/11 07:06:43;;;;;;;10.63;1.90;;;9.70;99.90;;;;;;4924840;29;20020;-87
2023/12/11 07:09:10;;;;;;;10.35;1.40;;;9.70;99.90;;;;;;4922621;29;20028;-87
2023/12/11 07:11:35;;;;;;;12.07;1.40;;;9.60;99.90;;;;;;4922516;29;20119;-85
2023/12/11 07:14:01;;;;;;;10.32;1.90;;;9.60;99.90;;;;;;4923708;29;20547;-86
2023/12/11 07:16:27;;;;;;;10.38;1.60;;;9.50;99.90;;;;;;4924914;29;20511;-86
2023/12/11 07:18:53;;;;;;;8.98;1.65;;;9.40;99.90;;;;;;4928842;29;20163;-87
2023/12/11 07:21:18;;;;;;;8.02;1.33;;;9.30;99.90;;;;;;4932300;29;20074;-87
2023/12/11 07:23:47;;;;;;;6.85;1.27;;;9.30;99.90;;;;;;4939517;29;20035;-88
2023/12/11 07:26:13;;;;;;;9.25;1.60;;;9.30;99.90;;;;;;4935302;28;20180;-87
2023/12/11 07:28:39;;;;;;;7.40;1.58;;;9.30;99.90;;;;;;4941445;29;20035;-87
2023/12/11 07:31:06;;;;;;;6.22;1.52;;;9.30;99.90;;;;;;4947587;28;20039;-87
2023/12/11 07:33:32;;;;;;;8.13;1.45;;;9.30;99.90;;;;;;4951698;28;20083;-87
2023/12/11 07:35:58;;;;;;;11.05;2.15;;;9.30;99.90;;;;;;4951030;28;20029;-86
2023/12/11 07:38:25;;;;;;;15.63;2.20;;;9.40;99.90;;;;;;4946959;28;20023;-86
2023/12/11 07:40:53;;;;;;;7.93;1.33;;;9.30;99.90;;;;;;4933698;28;20051;-87
2023/12/11 07:43:18;;;;;;;12.85;2.28;;;9.30;99.90;;;;;;4925005;29;20082;-86
2023/12/11 07:45:44;;;;;;;11.05;1.80;;;9.10;99.90;;;;;;4922386;29;20672;-94
2023/12/11 07:48:10;;;;;;;8.57;1.58;;;9.00;99.90;;;;;;4930045;28;20488;-83
2023/12/11 07:50:36;;;;;;;12.38;2.20;;;9.00;99.90;;;;;;4925137;29;20484;-87
2023/12/11 07:53:01;;;;;;;10.70;1.63;;;9.00;99.90;;;;;;4925864;29;20496;-86
2023/12/11 07:55:28;;;;;;;14.55;1.67;;;8.90;99.90;;;;;;4919769;29;20036;-88
2023/12/11 07:57:54;;;;;;;7.65;2.03;;;8.90;99.90;;;;;;4919995;29;20039;-87
2023/12/11 08:00:20;;;;;;;7.78;1.40;;;8.90;99.90;;;;;;4916435;29;20103;-87
2023/12/11 08:02:45;;;;;;;15.38;2.40;;;8.90;99.90;;;;;;4917836;29;20518;-88
2023/12/11 08:05:11;;;;;;;10.15;1.58;;;8.90;99.90;;;;;;4918374;29;20039;-88
2023/12/11 08:07:38;;;;;;;10.13;1.40;;;9.00;99.90;;;;;;4918783;29;20051;-87
2023/12/11 08:10:04;;;;;;;10.35;1.52;;;9.10;99.90;;;;;;4918813;29;20652;-84
2023/12/11 08:12:31;;;;;;;7.68;1.70;;;9.20;99.90;;;;;;4915632;29;20031;-86
2023/12/11 08:14:57;;;;;;;10.10;2.15;;;9.30;99.90;;;;;;4912289;29;20132;-88
2023/12/11 08:17:23;;;;;;;8.77;2.22;;;9.30;99.90;;;;;;4913733;29;20507;-88
2023/12/11 08:19:49;;;;;;;12.63;1.55;;;9.50;99.90;;;;;;4890170;29;20075;-88
2023/12/11 08:22:15;;;;;;;14.75;1.75;;;9.40;99.90;;;;;;4912050;29;20115;-88
2023/12/11 08:24:42;;;;;;;12.05;1.40;;;9.50;99.90;;;;;;4912244;28;20107;-88
2023/12/11 08:27:07;;;;;;;14.35;3.10;;;9.50;99.90;;;;;;4908861;29;20038;-85
2023/12/11 08:29:34;;;;;;;14.55;1.85;;;9.60;99.90;;;;;;4911931;29;20028;-88
2023/12/11 08:32:02;;;;;;;13.95;2.33;;;9.60;99.90;;;;;;4908121;29;20272;-83
2023/12/11 08:34:28;;;;;;;10.32;1.77;;;9.50;99.90;;;;;;4916178;29;20693;-88
2023/12/11 08:36:54;;;;;;;11.27;2.00;;;9.60;99.90;;;;;;4915249;29;21053;-88
2023/12/11 08:39:20;;;;;;;6.65;1.50;;;9.60;99.90;;;;;;4911693;29;20150;-89
2023/12/11 08:41:47;;;;;;;7.60;1.40;;;9.70;99.90;;;;;;4908697;29;20039;-85
2023/12/11 08:44:13;;;;;;;11.10;2.22;;;9.70;99.90;;;;;;4905076;29;20074;-80
2023/12/11 08:46:39;;;;;;;11.25;1.92;;;9.90;99.90;;;;;;4901323;29;20196;-86
2023/12/11 08:49:04;;;;;;;11.23;2.22;;;10.00;99.90;;;;;;4911355;29;20487;-80
2023/12/11 08:51:30;;;;;;;9.73;2.70;;;9.90;99.90;;;;;;4901950;29;20592;-80
2023/12/11 08:53:56;;;;;;;18.95;2.25;;;9.90;99.90;;;;;;4903157;29;20059;-82
2023/12/11 08:56:23;;;;;;;7.63;1.70;;;10.00;99.90;;;;;;4900347;29;20051;-83
2023/12/11 08:58:50;;;;;;;9.40;1.70;;;10.10;99.90;;;;;;4904274;29;20067;-82
2023/12/11 09:01:15;;;;;;;16.35;2.00;;;10.10;99.90;;;;;;4909236;29;20492;-81
2023/12/11 09:03:44;;;;;;;11.70;2.38;;;10.20;99.90;;;;;;4910093;29;20038;-85
2023/12/11 09:06:13;;;;;;;9.80;1.42;;;10.30;99.90;;;;;;4902156;29;20244;-84
2023/12/11 09:08:39;;;;;;;6.60;1.23;;;10.40;99.90;;;;;;4902869;29;20093;-84
2023/12/11 09:11:04;;;;;;;8.55;1.70;;;10.50;99.90;;;;;;4903970;29;20031;-83
2023/12/11 09:13:30;;;;;;;11.20;1.90;;;10.50;99.90;;;;;;4903078;29;20055;-85
2023/12/11 09:15:59;;;;;;;12.00;1.80;;;10.50;99.90;;;;;;4898456;29;20261;-86
2023/12/11 09:18:24;;;;;;;13.82;2.22;;;10.50;99.90;;;;;;4909287;29;20063;-85
2023/12/11 09:20:50;;;;;;;11.88;1.70;;;10.50;99.90;;;;;;4908865;29;20035;-84
2023/12/11 09:23:16;;;;;;;16.20;2.55;;;10.60;99.90;;;;;;4909212;29;20043;-82
2023/12/11 09:25:42;;;;;;;9.13;1.60;;;10.60;99.90;;;;;;4912490;29;20042;-85
2023/12/11 09:28:07;;;;;;;11.18;1.55;;;10.70;99.90;;;;;;4912097;29;20110;-84
2023/12/11 09:30:36;;;;;;;15.93;2.22;;;10.60;99.90;;;;;;4908448;29;20126;-88
2023/12/11 09:33:02;;;;;;;7.47;1.73;;;10.70;99.90;;;;;;4907924;29;20050;-85
2023/12/11 09:35:37;;;;;;;9.40;1.83;;;10.80;99.90;;;;;;4930364;28;20011;-88
2023/12/11 09:38:05;;;;;;;;;;;10.70;99.90;;;;;;4939789;28;20036;-91
2023/12/11 09:40:31;;;;;;;14.15;2.45;;;10.70;99.90;;;;;;5139603;23;20024;-88
2023/12/11 09:42:58;;;;;;;10.52;2.00;;;10.70;99.90;;;;;;4934689;28;20058;-89
2023/12/11 09:45:29;;;;;;;16.95;1.92;;;10.70;99.90;;;;;;4923008;28;20203;-85
2023/12/11 09:47:57;;;;;;;16.08;1.70;;;10.70;99.90;;;;;;4893061;29;20055;-82
2023/12/11 09:50:23;;;;;;;14.05;1.65;;;10.70;99.90;;;;;;4893634;29;20058;-83
2023/12/11 09:52:52;;;;;;;13.05;1.90;;;10.80;99.90;;;;;;4895522;29;20032;-87
2023/12/11 09:55:17;;;;;;;13.93;1.45;;;10.90;99.90;;;;;;4893035;29;20038;-86
2023/12/11 09:57:49;;;;;;;11.32;1.73;;;10.90;99.90;;;;;;4895924;29;20035;-87
2023/12/11 10:00:24;;;;;;;14.23;2.05;;;10.90;99.90;;;;;;4892780;29;20249;-88
2023/12/11 10:02:50;;;;;;;;;;;11.00;99.90;;;;;;4890154;29;20091;-81
2023/12/11 10:05:24;;;;;;;13.93;1.52;;;11.10;99.90;;;;;;4884175;29;19985;-83
2023/12/11 10:07:51;;;;;;;8.87;2.27;;;11.20;99.90;;;;;;4894473;29;20048;-83
2023/12/11 10:10:27;;;;;;;12.95;2.08;;;11.50;99.90;;;;;;4890902;29;20279;-81
2023/12/11 10:12:54;;;;;;;7.25;1.83;;;12.00;99.90;;;;;;4895005;29;20054;-85
2023/12/11 10:15:23;;;;;;;8.63;1.50;;;12.80;96.00;;;;;;4896867;29;20479;-81
2023/12/11 10:18:12;;;;;;;6.78;1.60;;;13.30;94.30;;;;;;4897225;29;20040;-89
2023/12/11 10:20:53;;;;;;;8.77;1.63;;;13.80;94.50;;;;;;4897768;29;20032;-86
2023/12/11 10:23:21;;;;;;;14.60;1.40;;;15.10;89.90;;;;;;4903231;29;20032;-82
2023/12/11 10:25:50;;;;;;;12.68;2.05;;;15.10;83.60;;;;;;4894064;29;20126;-85
2023/12/11 10:28:24;;;;;;;11.25;1.70;;;14.80;84.90;;;;;;4900164;29;20473;-88
2023/12/11 10:31:01;;;;;;;10.50;1.60;;;14.50;90.00;;;;;;4895886;29;20187;-83
2023/12/11 10:33:30;;;;;;;8.52;1.58;;;14.30;88.80;;;;;;4890856;29;20087;-78
2023/12/11 10:36:11;;;;;;;9.73;1.55;;;14.10;90.30;;;;;;4889826;29;20149;-79
2023/12/11 10:38:37;;;;;;;10.82;2.10;;;14.30;91.00;;;;;;4887938;29;20118;-78
2023/12/11 10:41:02;;;;;;;10.07;1.90;;;14.40;89.40;;;;;;4887578;29;20328;-79
2023/12/11 10:43:37;;;;;;;7.70;1.30;;;14.00;90.60;;;;;;4890217;29;20044;-77
2023/12/11 10:46:03;;;;;;;10.95;2.47;;;13.50;91.60;;;;;;4886696;29;20115;-75
2023/12/11 10:48:29;;;;;;;12.63;1.77;;;13.20;93.90;;;;;;4887819;29;20036;-78
2023/12/11 10:50:57;;;;;;;8.52;1.80;;;13.00;94.90;;;;;;4890427;29;20055;-82
2023/12/11 10:53:24;;;;;;;8.15;1.50;;;12.60;94.70;;;;;;4888070;29;20306;-80
2023/12/11 10:55:51;;;;;;;8.57;1.67;;;12.40;96.40;;;;;;4890949;29;20264;-81
2023/12/11 10:58:17;;;;;;;6.82;1.73;;;12.30;96.60;;;;;;4890944;29;20032;-82
2023/12/11 11:00:44;;;;;;;5.25;1.50;;;12.10;97.20;;;;;;4886590;29;20043;-77
2023/12/11 11:03:11;;;;;;;9.90;1.50;;;11.90;95.80;;;;;;4887959;29;20048;-86
2023/12/11 11:05:38;;;;;;;11.15;1.40;;;11.80;96.90;;;;;;4879546;29;20063;-77
2023/12/11 11:08:40;;;;;;;10.35;1.70;;;11.80;97.30;;;;;;4895760;29;20756;-78
2023/12/11 11:11:27;;;;;;;5.97;1.50;;;11.80;98.10;;;;;;4889456;29;20032;-92
2023/12/11 11:14:29;;;;;;;16.15;2.50;;;11.90;97.00;;;;;;4888179;29;20042;-84
2023/12/11 11:16:57;;;;;;;9.23;1.25;;;11.80;97.00;;;;;;4887171;29;20036;-79
2023/12/11 11:19:24;;;;;;;10.27;1.50;;;11.70;97.50;;;;;;4890202;29;20123;-79
2023/12/11 11:22:09;;;;;;;10.65;1.88;;;11.90;99.30;;;;;;4886933;29;20519;-80
2023/12/11 11:24:35;;;;;;;10.93;1.60;;;11.90;96.70;;;;;;4888006;29;20032;-81
2023/12/11 11:27:02;;;;;;;14.77;1.65;;;12.20;97.60;;;;;;4888827;29;21046;-79
2023/12/11 11:29:44;;;;;;;6.82;1.20;;;12.20;95.90;;;;;;4883630;29;20194;-85
2023/12/11 11:32:11;;;;;;;8.27;1.50;;;12.30;94.20;;;;;;4885311;29;20055;-77
2023/12/11 11:34:44;;;;;;;11.52;2.38;;;12.40;94.70;;;;;;4885116;29;20177;-78
2023/12/11 11:37:17;;;;;;;9.45;1.52;;;12.40;95.20;;;;;;4886803;29;20280;-80
2023/12/11 11:40:04;;;;;;;7.93;1.40;;;12.30;94.20;;;;;;4917315;29;20156;-78
2023/12/11 11:42:32;;;;;;;8.20;1.42;;;12.30;94.80;;;;;;4912125;29;20044;-79
2023/12/11 11:44:59;;;;;;;7.75;1.55;;;12.10;93.60;;;;;;4912924;28;20310;-79
2023/12/11 11:47:27;;;;;;;10.35;1.98;;;12.10;95.20;;;;;;4897798;28;20620;-79
2023/12/11 11:49:53;;;;;;;7.15;1.50;;;12.00;94.40;;;;;;4886974;29;20468;-81
2023/12/11 11:52:28;;;;;;;6.78;1.88;;;12.00;94.40;;;;;;4890813;29;21603;-80
2023/12/11 11:55:02;;;;;;;5.18;1.45;;;12.10;93.60;;;;;;4887963;29;20067;-81
2023/12/11 11:57:28;;;;;;;9.48;1.70;;;12.20;98.60;;;;;;4890809;29;20266;-83
2023/12/11 11:59:55;;;;;;;7.53;1.70;;;12.10;95.50;;;;;;4885781;29;20092;-79
2023/12/11 12:02:23;;;;;;;9.02;1.50;;;12.20;93.20;;;;;;4881870;29;20128;-85
2023/12/11 12:04:55;;;;;;;10.75;1.33;;;12.30;94.90;;;;;;4891513;29;20563;-88
2023/12/11 12:07:21;;;;;;;12.48;1.70;;;12.50;96.70;;;;;;4871830;29;20366;-83
2023/12/11 12:09:52;;;;;;;8.13;1.73;;;12.60;94.30;;;;;;4880001;29;20392;-86
2023/12/11 12:12:18;;;;;;;6.45;1.77;;;12.70;94.40;;;;;;4891069;29;20035;-80
2023/12/11 12:14:44;;;;;;;9.90;1.80;;;12.70;92.70;;;;;;4890278;29;20040;-81
2023/12/11 12:17:10;;;;;;;14.20;2.30;;;12.70;93.30;;;;;;4891152;29;20701;-82
2023/12/11 12:19:37;;;;;;;9.70;1.85;;;12.50;93.50;;;;;;4896962;29;20118;-82
2023/12/11 12:22:03;;;;;;;13.68;3.00;;;12.50;94.50;;;;;;4899074;29;20024;-83
2023/12/11 12:24:30;;;;;;;12.90;2.03;;;12.80;95.20;;;;;;4891757;29;20027;-81
2023/12/11 12:27:06;;;;;;;9.15;1.52;;;13.10;94.50;;;;;;4889142;29;20147;-84
2023/12/11 12:29:33;;;;;;;7.97;1.45;;;13.70;90.90;;;;;;4898377;29;20743;-87
2023/12/11 12:32:08;;;;;;;9.77;1.55;;;14.20;90.70;;;;;;4895130;29;20492;-89
2023/12/11 12:34:36;;;;;;;13.90;1.70;;;14.80;89.60;;;;;;4881911;29;20716;-85
2023/12/11 12:37:11;;;;;;;8.13;1.58;;;15.20;83.00;;;;;;4892880;29;20230;-87
2023/12/11 12:39:37;;;;;;;10.15;1.95;;;16.00;77.70;;;;;;4900746;29;20028;-85
2023/12/11 12:42:06;;;;;;;8.45;1.52;;;16.90;77.10;;;;;;4901711;29;20051;-85